sensor_id;sensor_type;location;lat;lon;timestamp;P1;durP1;ratioP1;P2;durP2;ratioP2
55756;SDS011;41676;44.610;44.078;2023-03-14T00:03:27;6.45;;;2.95;;
55756;SDS011;41676;44.610;44.078;2023-03-14T00:08:29;5.82;;;3.83;;
55756;SDS011;41676;44.610;44.078;2023-03-14T00:13:49;4.45;;;2.85;;
55756;SDS011;41676;44.610;44.078;2023-03-14T00:19:09;4.88;;;3.35;;
55756;SDS011;41676;44.610;44.078;2023-03-14T00:24:29;4.80;;;3.05;;
55756;SDS011;41676;44.610;44.078;2023-03-14T00:29:48;3.92;;;2.70;;
55756;SDS011;41676;44.610;44.078;2023-03-14T00:35:08;4.93;;;3.35;;
55756;SDS011;41676;44.610;44.078;2023-03-14T00:40:27;5.28;;;3.60;;
55756;SDS011;41676;44.610;44.078;2023-03-14T00:45:47;4.60;;;3.30;;
55756;SDS011;41676;44.610;44.078;2023-03-14T00:51:08;6.03;;;3.53;;
55756;SDS011;41676;44.610;44.078;2023-03-14T00:56:21;6.27;;;3.60;;
55756;SDS011;41676;44.610;44.078;2023-03-14T01:01:22;4.93;;;3.40;;
55756;SDS011;41676;44.610;44.078;2023-03-14T01:06:24;5.40;;;3.50;;
55756;SDS011;41676;44.610;44.078;2023-03-14T01:11:28;7.50;;;3.75;;
55756;SDS011;41676;44.610;44.078;2023-03-14T01:21:34;4.38;;;3.30;;
55756;SDS011;41676;44.610;44.078;2023-03-14T01:26:35;5.10;;;3.45;;
55756;SDS011;41676;44.610;44.078;2023-03-14T01:31:36;5.97;;;3.63;;
55756;SDS011;41676;44.610;44.078;2023-03-14T01:36:37;8.30;;;4.03;;
55756;SDS011;41676;44.610;44.078;2023-03-14T01:41:56;5.50;;;3.92;;
55756;SDS011;41676;44.610;44.078;2023-03-14T01:46:57;5.43;;;3.70;;
55756;SDS011;41676;44.610;44.078;2023-03-14T01:52:05;5.68;;;3.80;;
55756;SDS011;41676;44.610;44.078;2023-03-14T01:57:25;5.47;;;3.90;;
55756;SDS011;41676;44.610;44.078;2023-03-14T02:02:30;6.38;;;4.13;;
55756;SDS011;41676;44.610;44.078;2023-03-14T02:07:39;9.95;;;3.88;;
55756;SDS011;41676;44.610;44.078;2023-03-14T02:12:47;6.20;;;3.88;;
55756;SDS011;41676;44.610;44.078;2023-03-14T02:17:51;6.07;;;3.97;;
55756;SDS011;41676;44.610;44.078;2023-03-14T02:22:52;7.65;;;4.25;;
55756;SDS011;41676;44.610;44.078;2023-03-14T02:27:53;5.15;;;3.58;;
55756;SDS011;41676;44.610;44.078;2023-03-14T02:33:05;6.03;;;3.60;;
55756;SDS011;41676;44.610;44.078;2023-03-14T02:43:37;5.63;;;3.33;;
55756;SDS011;41676;44.610;44.078;2023-03-14T02:48:43;4.97;;;2.70;;
55756;SDS011;41676;44.610;44.078;2023-03-14T02:53:49;4.30;;;2.30;;
55756;SDS011;41676;44.610;44.078;2023-03-14T02:58:50;4.82;;;2.50;;
55756;SDS011;41676;44.610;44.078;2023-03-14T03:03:50;9.65;;;3.03;;
55756;SDS011;41676;44.610;44.078;2023-03-14T03:08:51;3.92;;;2.60;;
55756;SDS011;41676;44.610;44.078;2023-03-14T03:13:52;5.55;;;2.13;;
55756;SDS011;41676;44.610;44.078;2023-03-14T03:18:53;5.63;;;2.20;;
55756;SDS011;41676;44.610;44.078;2023-03-14T03:23:54;3.58;;;1.83;;
55756;SDS011;41676;44.610;44.078;2023-03-14T03:28:54;3.53;;;1.73;;
55756;SDS011;41676;44.610;44.078;2023-03-14T03:33:56;4.65;;;1.73;;
55756;SDS011;41676;44.610;44.078;2023-03-14T03:38:57;3.92;;;1.83;;
55756;SDS011;41676;44.610;44.078;2023-03-14T03:43:58;4.18;;;1.90;;
55756;SDS011;41676;44.610;44.078;2023-03-14T03:48:59;3.85;;;1.77;;
55756;SDS011;41676;44.610;44.078;2023-03-14T03:54:00;4.78;;;1.73;;
55756;SDS011;41676;44.610;44.078;2023-03-14T03:59:01;5.90;;;1.92;;
55756;SDS011;41676;44.610;44.078;2023-03-14T04:04:02;3.72;;;1.80;;
55756;SDS011;41676;44.610;44.078;2023-03-14T04:09:02;3.65;;;1.98;;
55756;SDS011;41676;44.610;44.078;2023-03-14T04:14:04;6.18;;;2.30;;
55756;SDS011;41676;44.610;44.078;2023-03-14T04:19:05;2.95;;;1.80;;
55756;SDS011;41676;44.610;44.078;2023-03-14T04:24:06;5.05;;;1.95;;
55756;SDS011;41676;44.610;44.078;2023-03-14T04:29:07;2.92;;;1.65;;
55756;SDS011;41676;44.610;44.078;2023-03-14T04:34:07;3.63;;;1.80;;
55756;SDS011;41676;44.610;44.078;2023-03-14T04:39:08;4.80;;;1.63;;
55756;SDS011;41676;44.610;44.078;2023-03-14T04:44:09;4.28;;;1.67;;
55756;SDS011;41676;44.610;44.078;2023-03-14T04:49:10;4.15;;;1.58;;
55756;SDS011;41676;44.610;44.078;2023-03-14T04:54:11;2.33;;;1.30;;
55756;SDS011;41676;44.610;44.078;2023-03-14T04:59:12;3.35;;;1.80;;
55756;SDS011;41676;44.610;44.078;2023-03-14T05:04:12;3.85;;;1.45;;
55756;SDS011;41676;44.610;44.078;2023-03-14T05:09:13;3.35;;;1.48;;
55756;SDS011;41676;44.610;44.078;2023-03-14T05:14:15;5.93;;;1.95;;
55756;SDS011;41676;44.610;44.078;2023-03-14T05:19:16;4.00;;;1.58;;
55756;SDS011;41676;44.610;44.078;2023-03-14T05:24:16;3.08;;;1.38;;
55756;SDS011;41676;44.610;44.078;2023-03-14T05:29:17;2.13;;;1.20;;
55756;SDS011;41676;44.610;44.078;2023-03-14T05:34:18;3.25;;;1.40;;
55756;SDS011;41676;44.610;44.078;2023-03-14T05:39:18;2.88;;;1.20;;
55756;SDS011;41676;44.610;44.078;2023-03-14T05:44:19;2.63;;;1.02;;
55756;SDS011;41676;44.610;44.078;2023-03-14T05:49:20;2.80;;;1.23;;
55756;SDS011;41676;44.610;44.078;2023-03-14T05:54:21;2.50;;;1.10;;
55756;SDS011;41676;44.610;44.078;2023-03-14T05:59:21;2.70;;;0.95;;
55756;SDS011;41676;44.610;44.078;2023-03-14T06:04:22;3.30;;;1.20;;
55756;SDS011;41676;44.610;44.078;2023-03-14T06:09:24;2.38;;;1.20;;
55756;SDS011;41676;44.610;44.078;2023-03-14T06:14:25;3.47;;;1.25;;
55756;SDS011;41676;44.610;44.078;2023-03-14T06:19:25;1.80;;;0.88;;
55756;SDS011;41676;44.610;44.078;2023-03-14T06:24:26;2.15;;;1.05;;
55756;SDS011;41676;44.610;44.078;2023-03-14T06:29:27;3.90;;;1.00;;
55756;SDS011;41676;44.610;44.078;2023-03-14T06:34:28;2.45;;;0.85;;
55756;SDS011;41676;44.610;44.078;2023-03-14T06:39:29;2.75;;;1.10;;
55756;SDS011;41676;44.610;44.078;2023-03-14T06:44:30;2.55;;;1.40;;
55756;SDS011;41676;44.610;44.078;2023-03-14T06:49:30;4.18;;;1.05;;
55756;SDS011;41676;44.610;44.078;2023-03-14T06:54:31;2.30;;;0.98;;
55756;SDS011;41676;44.610;44.078;2023-03-14T06:59:32;1.98;;;1.00;;
55756;SDS011;41676;44.610;44.078;2023-03-14T07:04:32;2.40;;;0.80;;
55756;SDS011;41676;44.610;44.078;2023-03-14T07:09:33;3.22;;;0.98;;
55756;SDS011;41676;44.610;44.078;2023-03-14T07:14:34;2.40;;;0.90;;
55756;SDS011;41676;44.610;44.078;2023-03-14T07:19:35;2.22;;;0.90;;
55756;SDS011;41676;44.610;44.078;2023-03-14T07:24:36;2.78;;;1.00;;
55756;SDS011;41676;44.610;44.078;2023-03-14T07:29:36;4.22;;;1.42;;
55756;SDS011;41676;44.610;44.078;2023-03-14T07:34:37;2.70;;;1.17;;
55756;SDS011;41676;44.610;44.078;2023-03-14T07:39:38;6.38;;;2.80;;
55756;SDS011;41676;44.610;44.078;2023-03-14T07:44:39;4.13;;;2.20;;
55756;SDS011;41676;44.610;44.078;2023-03-14T07:49:40;3.63;;;1.10;;
55756;SDS011;41676;44.610;44.078;2023-03-14T07:54:40;5.85;;;1.02;;
55756;SDS011;41676;44.610;44.078;2023-03-14T07:59:41;2.85;;;0.80;;
55756;SDS011;41676;44.610;44.078;2023-03-14T08:04:42;2.50;;;0.93;;
55756;SDS011;41676;44.610;44.078;2023-03-14T08:09:43;3.53;;;1.40;;
55756;SDS011;41676;44.610;44.078;2023-03-14T08:14:44;4.13;;;0.90;;
55756;SDS011;41676;44.610;44.078;2023-03-14T08:19:44;5.88;;;0.90;;
55756;SDS011;41676;44.610;44.078;2023-03-14T08:24:45;2.30;;;0.70;;
55756;SDS011;41676;44.610;44.078;2023-03-14T08:29:46;4.63;;;0.90;;
55756;SDS011;41676;44.610;44.078;2023-03-14T08:34:46;2.38;;;0.90;;
55756;SDS011;41676;44.610;44.078;2023-03-14T08:39:47;4.25;;;0.73;;
55756;SDS011;41676;44.610;44.078;2023-03-14T08:44:48;1.55;;;0.85;;
55756;SDS011;41676;44.610;44.078;2023-03-14T08:49:49;1.77;;;0.77;;
55756;SDS011;41676;44.610;44.078;2023-03-14T08:54:49;1.77;;;0.85;;
55756;SDS011;41676;44.610;44.078;2023-03-14T08:59:50;1.92;;;0.70;;
55756;SDS011;41676;44.610;44.078;2023-03-14T09:04:51;2.60;;;0.80;;
55756;SDS011;41676;44.610;44.078;2023-03-14T09:09:52;1.60;;;0.95;;
55756;SDS011;41676;44.610;44.078;2023-03-14T09:14:53;1.77;;;0.80;;
55756;SDS011;41676;44.610;44.078;2023-03-14T09:19:54;1.92;;;0.80;;
55756;SDS011;41676;44.610;44.078;2023-03-14T09:24:55;3.15;;;1.17;;
55756;SDS011;41676;44.610;44.078;2023-03-14T09:29:55;2.45;;;1.02;;
55756;SDS011;41676;44.610;44.078;2023-03-14T09:34:56;2.58;;;1.00;;
55756;SDS011;41676;44.610;44.078;2023-03-14T09:39:57;3.80;;;1.73;;
55756;SDS011;41676;44.610;44.078;2023-03-14T09:45:03;1.92;;;0.95;;
55756;SDS011;41676;44.610;44.078;2023-03-14T09:50:10;3.67;;;1.50;;
55756;SDS011;41676;44.610;44.078;2023-03-14T09:55:16;6.03;;;3.30;;
55756;SDS011;41676;44.610;44.078;2023-03-14T10:00:22;2.42;;;1.10;;
55756;SDS011;41676;44.610;44.078;2023-03-14T10:05:26;8.57;;;4.93;;
55756;SDS011;41676;44.610;44.078;2023-03-14T10:10:30;4.43;;;1.90;;
55756;SDS011;41676;44.610;44.078;2023-03-14T10:15:32;7.78;;;2.28;;
55756;SDS011;41676;44.610;44.078;2023-03-14T10:20:38;2.45;;;1.30;;
55756;SDS011;41676;44.610;44.078;2023-03-14T10:25:45;2.60;;;1.30;;
55756;SDS011;41676;44.610;44.078;2023-03-14T10:31:00;3.65;;;1.52;;
55756;SDS011;41676;44.610;44.078;2023-03-14T10:41:24;3.92;;;1.50;;
55756;SDS011;41676;44.610;44.078;2023-03-14T10:46:26;2.90;;;1.38;;
55756;SDS011;41676;44.610;44.078;2023-03-14T10:51:31;2.28;;;1.67;;
55756;SDS011;41676;44.610;44.078;2023-03-14T10:56:35;3.15;;;1.90;;
55756;SDS011;41676;44.610;44.078;2023-03-14T11:07:14;5.00;;;2.88;;
55756;SDS011;41676;44.610;44.078;2023-03-14T11:23:24;4.72;;;3.75;;
55756;SDS011;41676;44.610;44.078;2023-03-14T11:28:47;6.13;;;4.65;;
55756;SDS011;41676;44.610;44.078;2023-03-14T11:33:59;5.88;;;4.97;;
55756;SDS011;41676;44.610;44.078;2023-03-14T11:39:11;7.75;;;5.10;;
55756;SDS011;41676;44.610;44.078;2023-03-14T11:44:18;12.05;;;4.75;;
55756;SDS011;41676;44.610;44.078;2023-03-14T11:49:26;6.22;;;4.68;;
55756;SDS011;41676;44.610;44.078;2023-03-14T12:00:14;6.00;;;2.92;;
55756;SDS011;41676;44.610;44.078;2023-03-14T12:10:43;4.10;;;2.40;;
55756;SDS011;41676;44.610;44.078;2023-03-14T12:15:49;4.03;;;2.42;;
55756;SDS011;41676;44.610;44.078;2023-03-14T12:21:02;3.72;;;2.15;;
55756;SDS011;41676;44.610;44.078;2023-03-14T12:37:09;4.15;;;1.40;;
55756;SDS011;41676;44.610;44.078;2023-03-14T12:42:13;6.22;;;1.77;;
55756;SDS011;41676;44.610;44.078;2023-03-14T12:52:44;6.32;;;1.40;;
55756;SDS011;41676;44.610;44.078;2023-03-14T13:03:39;3.92;;;2.08;;
55756;SDS011;41676;44.610;44.078;2023-03-14T13:08:45;9.05;;;2.50;;
55756;SDS011;41676;44.610;44.078;2023-03-14T13:13:48;7.57;;;3.00;;
55756;SDS011;41676;44.610;44.078;2023-03-14T13:19:01;7.00;;;1.58;;
55756;SDS011;41676;44.610;44.078;2023-03-14T13:24:05;8.40;;;1.60;;
55756;SDS011;41676;44.610;44.078;2023-03-14T13:34:20;15.18;;;1.65;;
55756;SDS011;41676;44.610;44.078;2023-03-14T13:39:22;4.70;;;1.52;;
55756;SDS011;41676;44.610;44.078;2023-03-14T13:44:38;5.82;;;1.20;;
55756;SDS011;41676;44.610;44.078;2023-03-14T13:49:40;6.25;;;1.63;;
55756;SDS011;41676;44.610;44.078;2023-03-14T13:54:41;17.88;;;1.50;;
55756;SDS011;41676;44.610;44.078;2023-03-14T13:59:42;9.60;;;1.38;;
55756;SDS011;41676;44.610;44.078;2023-03-14T14:04:43;7.55;;;1.67;;
55756;SDS011;41676;44.610;44.078;2023-03-14T14:09:53;9.65;;;1.88;;
55756;SDS011;41676;44.610;44.078;2023-03-14T14:14:56;7.13;;;1.38;;
55756;SDS011;41676;44.610;44.078;2023-03-14T14:20:03;14.27;;;1.63;;
55756;SDS011;41676;44.610;44.078;2023-03-14T14:25:06;7.28;;;1.30;;
55756;SDS011;41676;44.610;44.078;2023-03-14T14:35:30;7.72;;;1.50;;
55756;SDS011;41676;44.610;44.078;2023-03-14T14:40:33;8.45;;;1.60;;
55756;SDS011;41676;44.610;44.078;2023-03-14T14:45:34;4.47;;;1.38;;
55756;SDS011;41676;44.610;44.078;2023-03-14T14:50:39;5.68;;;1.40;;
55756;SDS011;41676;44.610;44.078;2023-03-14T14:55:50;4.32;;;1.50;;
55756;SDS011;41676;44.610;44.078;2023-03-14T15:00:56;8.50;;;1.48;;
55756;SDS011;41676;44.610;44.078;2023-03-14T15:05:59;9.45;;;1.80;;
55756;SDS011;41676;44.610;44.078;2023-03-14T15:11:02;13.40;;;1.73;;
55756;SDS011;41676;44.610;44.078;2023-03-14T15:16:02;11.68;;;1.60;;
55756;SDS011;41676;44.610;44.078;2023-03-14T15:21:09;7.65;;;1.63;;
55756;SDS011;41676;44.610;44.078;2023-03-14T15:26:11;8.45;;;1.33;;
55756;SDS011;41676;44.610;44.078;2023-03-14T15:36:21;5.75;;;1.35;;
55756;SDS011;41676;44.610;44.078;2023-03-14T15:41:25;9.32;;;1.65;;
55756;SDS011;41676;44.610;44.078;2023-03-14T15:46:27;6.95;;;1.90;;
55756;SDS011;41676;44.610;44.078;2023-03-14T15:51:27;35.50;;;6.53;;
55756;SDS011;41676;44.610;44.078;2023-03-14T15:56:28;13.55;;;2.92;;
55756;SDS011;41676;44.610;44.078;2023-03-14T16:01:31;12.40;;;2.60;;
55756;SDS011;41676;44.610;44.078;2023-03-14T16:06:31;10.95;;;2.90;;
55756;SDS011;41676;44.610;44.078;2023-03-14T16:11:32;13.95;;;2.95;;
55756;SDS011;41676;44.610;44.078;2023-03-14T16:16:33;8.05;;;4.15;;
55756;SDS011;41676;44.610;44.078;2023-03-14T16:21:34;9.20;;;6.15;;
55756;SDS011;41676;44.610;44.078;2023-03-14T16:26:34;12.13;;;7.65;;
55756;SDS011;41676;44.610;44.078;2023-03-14T16:31:36;11.40;;;8.65;;
55756;SDS011;41676;44.610;44.078;2023-03-14T16:36:42;11.75;;;9.60;;
55756;SDS011;41676;44.610;44.078;2023-03-14T16:41:43;15.40;;;10.10;;
55756;SDS011;41676;44.610;44.078;2023-03-14T16:46:44;14.52;;;11.40;;
55756;SDS011;41676;44.610;44.078;2023-03-14T16:51:45;13.40;;;10.80;;
55756;SDS011;41676;44.610;44.078;2023-03-14T16:56:45;18.52;;;11.77;;
55756;SDS011;41676;44.610;44.078;2023-03-14T17:01:48;16.33;;;11.23;;
55756;SDS011;41676;44.610;44.078;2023-03-14T17:06:49;14.80;;;10.45;;
55756;SDS011;41676;44.610;44.078;2023-03-14T17:11:50;14.05;;;10.45;;
55756;SDS011;41676;44.610;44.078;2023-03-14T17:16:51;15.30;;;9.57;;
55756;SDS011;41676;44.610;44.078;2023-03-14T17:21:53;15.00;;;10.35;;
55756;SDS011;41676;44.610;44.078;2023-03-14T17:26:54;11.75;;;8.95;;
55756;SDS011;41676;44.610;44.078;2023-03-14T17:31:54;13.32;;;8.63;;
55756;SDS011;41676;44.610;44.078;2023-03-14T17:36:55;9.13;;;7.68;;
55756;SDS011;41676;44.610;44.078;2023-03-14T17:41:56;11.13;;;7.70;;
55756;SDS011;41676;44.610;44.078;2023-03-14T17:46:57;16.73;;;6.93;;
55756;SDS011;41676;44.610;44.078;2023-03-14T17:51:58;8.23;;;6.30;;
55756;SDS011;41676;44.610;44.078;2023-03-14T17:56:59;10.93;;;5.90;;
55756;SDS011;41676;44.610;44.078;2023-03-14T18:02:01;10.45;;;5.60;;
55756;SDS011;41676;44.610;44.078;2023-03-14T18:07:02;9.45;;;5.72;;
55756;SDS011;41676;44.610;44.078;2023-03-14T18:12:03;7.78;;;5.03;;
55756;SDS011;41676;44.610;44.078;2023-03-14T18:17:04;10.35;;;5.35;;
55756;SDS011;41676;44.610;44.078;2023-03-14T18:22:05;7.80;;;5.00;;
55756;SDS011;41676;44.610;44.078;2023-03-14T18:27:06;7.65;;;4.75;;
55756;SDS011;41676;44.610;44.078;2023-03-14T18:32:08;13.73;;;5.10;;
55756;SDS011;41676;44.610;44.078;2023-03-14T18:37:09;6.63;;;4.63;;
55756;SDS011;41676;44.610;44.078;2023-03-14T18:42:10;14.65;;;4.88;;
55756;SDS011;41676;44.610;44.078;2023-03-14T18:47:11;6.90;;;4.68;;
55756;SDS011;41676;44.610;44.078;2023-03-14T18:52:12;5.85;;;3.90;;
55756;SDS011;41676;44.610;44.078;2023-03-14T18:57:12;6.45;;;4.43;;
55756;SDS011;41676;44.610;44.078;2023-03-14T19:02:13;9.00;;;3.80;;
55756;SDS011;41676;44.610;44.078;2023-03-14T19:07:14;5.57;;;2.97;;
55756;SDS011;41676;44.610;44.078;2023-03-14T19:12:14;5.20;;;2.53;;
55756;SDS011;41676;44.610;44.078;2023-03-14T19:17:16;4.35;;;2.20;;
55756;SDS011;41676;44.610;44.078;2023-03-14T19:22:17;4.47;;;1.90;;
55756;SDS011;41676;44.610;44.078;2023-03-14T19:27:18;3.22;;;1.83;;
55756;SDS011;41676;44.610;44.078;2023-03-14T19:32:20;4.55;;;1.88;;
55756;SDS011;41676;44.610;44.078;2023-03-14T19:37:21;5.72;;;1.60;;
55756;SDS011;41676;44.610;44.078;2023-03-14T19:42:21;6.47;;;1.65;;
55756;SDS011;41676;44.610;44.078;2023-03-14T19:47:22;8.75;;;1.70;;
55756;SDS011;41676;44.610;44.078;2023-03-14T19:52:23;3.50;;;1.60;;
55756;SDS011;41676;44.610;44.078;2023-03-14T19:57:24;6.05;;;1.73;;
55756;SDS011;41676;44.610;44.078;2023-03-14T20:02:25;10.75;;;1.58;;
55756;SDS011;41676;44.610;44.078;2023-03-14T20:07:26;6.82;;;1.90;;
55756;SDS011;41676;44.610;44.078;2023-03-14T20:12:28;8.60;;;1.90;;
55756;SDS011;41676;44.610;44.078;2023-03-14T20:17:30;13.30;;;1.53;;
55756;SDS011;41676;44.610;44.078;2023-03-14T20:22:33;7.38;;;1.95;;
55756;SDS011;41676;44.610;44.078;2023-03-14T20:27:38;6.40;;;1.45;;
55756;SDS011;41676;44.610;44.078;2023-03-14T20:32:39;11.68;;;1.90;;
55756;SDS011;41676;44.610;44.078;2023-03-14T20:37:41;15.45;;;2.05;;
55756;SDS011;41676;44.610;44.078;2023-03-14T20:42:41;13.57;;;1.90;;
55756;SDS011;41676;44.610;44.078;2023-03-14T20:47:42;14.23;;;2.15;;
55756;SDS011;41676;44.610;44.078;2023-03-14T20:52:43;7.63;;;1.80;;
55756;SDS011;41676;44.610;44.078;2023-03-14T20:57:44;23.77;;;3.00;;
55756;SDS011;41676;44.610;44.078;2023-03-14T21:02:45;12.00;;;2.60;;
55756;SDS011;41676;44.610;44.078;2023-03-14T21:07:46;10.85;;;2.92;;
55756;SDS011;41676;44.610;44.078;2023-03-14T21:12:47;15.15;;;2.70;;
55756;SDS011;41676;44.610;44.078;2023-03-14T21:17:47;11.60;;;2.15;;
55756;SDS011;41676;44.610;44.078;2023-03-14T21:22:48;14.25;;;2.20;;
55756;SDS011;41676;44.610;44.078;2023-03-14T21:27:49;10.73;;;2.15;;
55756;SDS011;41676;44.610;44.078;2023-03-14T21:32:50;12.32;;;2.15;;
55756;SDS011;41676;44.610;44.078;2023-03-14T21:37:51;11.55;;;2.20;;
55756;SDS011;41676;44.610;44.078;2023-03-14T21:42:52;13.77;;;2.75;;
55756;SDS011;41676;44.610;44.078;2023-03-14T21:47:53;22.55;;;2.75;;
55756;SDS011;41676;44.610;44.078;2023-03-14T21:52:55;8.05;;;1.75;;
55756;SDS011;41676;44.610;44.078;2023-03-14T21:57:58;11.60;;;2.85;;
55756;SDS011;41676;44.610;44.078;2023-03-14T22:03:01;13.25;;;3.15;;
55756;SDS011;41676;44.610;44.078;2023-03-14T22:08:02;14.70;;;2.53;;
55756;SDS011;41676;44.610;44.078;2023-03-14T22:13:03;11.88;;;2.10;;
55756;SDS011;41676;44.610;44.078;2023-03-14T22:18:04;11.30;;;1.75;;
55756;SDS011;41676;44.610;44.078;2023-03-14T22:23:04;14.93;;;2.00;;
55756;SDS011;41676;44.610;44.078;2023-03-14T22:28:05;7.10;;;1.48;;
55756;SDS011;41676;44.610;44.078;2023-03-14T22:33:06;14.00;;;1.65;;
55756;SDS011;41676;44.610;44.078;2023-03-14T22:38:07;11.93;;;1.73;;
55756;SDS011;41676;44.610;44.078;2023-03-14T22:43:08;8.70;;;1.35;;
55756;SDS011;41676;44.610;44.078;2023-03-14T22:48:09;14.32;;;2.05;;
55756;SDS011;41676;44.610;44.078;2023-03-14T22:53:09;10.60;;;1.90;;
55756;SDS011;41676;44.610;44.078;2023-03-14T22:58:10;13.60;;;1.67;;
55756;SDS011;41676;44.610;44.078;2023-03-14T23:03:11;11.18;;;1.52;;
55756;SDS011;41676;44.610;44.078;2023-03-14T23:08:13;13.52;;;2.00;;
55756;SDS011;41676;44.610;44.078;2023-03-14T23:13:14;9.70;;;1.63;;
55756;SDS011;41676;44.610;44.078;2023-03-14T23:18:15;101.43;;;40.58;;
55756;SDS011;41676;44.610;44.078;2023-03-14T23:23:16;60.85;;;25.13;;
55756;SDS011;41676;44.610;44.078;2023-03-14T23:28:17;50.25;;;23.60;;
55756;SDS011;41676;44.610;44.078;2023-03-14T23:33:18;22.80;;;12.35;;
55756;SDS011;41676;44.610;44.078;2023-03-14T23:38:22;27.67;;;7.97;;
55756;SDS011;41676;44.610;44.078;2023-03-14T23:43:25;17.23;;;3.35;;
55756;SDS011;41676;44.610;44.078;2023-03-14T23:48:27;11.68;;;2.95;;
55756;SDS011;41676;44.610;44.078;2023-03-14T23:53:29;26.02;;;10.70;;
55756;SDS011;41676;44.610;44.078;2023-03-14T23:58:31;34.03;;;13.60;;
